LTAF/ADA METAR and TAF weather

Enter ICAO airport designator
Station Type Date Time Source
LTAF METAR 2021/05/17 22:20 UTC NOAA

LTAF 172220Z 00000KT 9999 FEW040 19/16 Q1011 NOSIG


Station Type Date Time Source
LTAF Decoded METAR 2021/05/17 22:20 UTC NOAA

Adana / Sakirpasa, Turkey (LTAF) 36-59N 035-18E 20M
May 17, 2021 - 06:20 PM EDT / 2021.05.17 2220 UTC
Wind: Calm:0
Visibility: greater than 7 mile(s):0
Sky conditions: mostly clear
Temperature: 66 F (19 C)
Dew Point: 60 F (16 C)
Relative Humidity: 82%
Pressure (altimeter): 29.85 in. Hg (1011 hPa)
ob: LTAF 172220Z 00000KT 9999 FEW040 19/16 Q1011 NOSIG
cycle: 22

Station Type Date Time Source
LTAF TAF 2021/05/17 18:02 UTC NOAA

TAF LTAF 171640Z 1718/1818 VRB02KT 9999 SCT035
BECMG 1808/1810 21012KT
BECMG 1816/1818 VRB02KT

Example: see airport list